Map

Track Data

SID SEASON NUMBER BASIN SUBBASIN NAME ISO_TIME NATURE LAT LON WMO_WIND WMO_PRES WMO_AGENCY TRACK_TYPE DIST2LAND LANDFALL IFLAG USA_AGENCY USA_ATCF_ID USA_LAT USA_LON USA_RECORD USA_STATUS USA_WIND USA_PRES USA_SSHS USA_R34_NE USA_R34_SE USA_R34_SW USA_R34_NW USA_R50_NE USA_R50_SE USA_R50_SW USA_R50_NW USA_R64_NE USA_R64_SE USA_R64_SW USA_R64_NW USA_POCI USA_ROCI USA_RMW USA_EYE TOKYO_LAT TOKYO_LON TOKYO_GRADE TOKYO_WIND TOKYO_PRES TOKYO_R50_DIR TOKYO_R50_LONG TOKYO_R50_SHORT TOKYO_R30_DIR TOKYO_R30_LONG TOKYO_R30_SHORT TOKYO_LAND CMA_LAT CMA_LON CMA_CAT CMA_WIND CMA_PRES HKO_LAT HKO_LON HKO_CAT HKO_WIND HKO_PRES NEWDELHI_LAT NEWDELHI_LON NEWDELHI_GRADE NEWDELHI_WIND NEWDELHI_PRES NEWDELHI_CI NEWDELHI_DP NEWDELHI_POCI REUNION_LAT REUNION_LON REUNION_TYPE REUNION_WIND REUNION_PRES REUNION_TNUM REUNION_CI REUNION_RMW REUNION_R34_NE REUNION_R34_SE REUNION_R34_SW REUNION_R34_NW REUNION_R50_NE REUNION_R50_SE REUNION_R50_SW REUNION_R50_NW REUNION_R64_NE REUNION_R64_SE REUNION_R64_SW REUNION_R64_NW BOM_LAT BOM_LON BOM_TYPE BOM_WIND BOM_PRES BOM_TNUM BOM_CI BOM_RMW BOM_R34_NE BOM_R34_SE BOM_R34_SW BOM_R34_NW BOM_R50_NE BOM_R50_SE BOM_R50_SW BOM_R50_NW BOM_R64_NE BOM_R64_SE BOM_R64_SW BOM_R64_NW BOM_ROCI BOM_POCI BOM_EYE BOM_POS_METHOD BOM_PRES_METHOD NADI_LAT NADI_LON NADI_CAT NADI_WIND NADI_PRES WELLINGTON_LAT WELLINGTON_LON WELLINGTON_WIND WELLINGTON_PRES DS824_LAT DS824_LON DS824_STAGE DS824_WIND DS824_PRES TD9636_LAT TD9636_LON TD9636_STAGE TD9636_WIND TD9636_PRES TD9635_LAT TD9635_LON TD9635_WIND TD9635_PRES TD9635_ROCI NEUMANN_LAT NEUMANN_LON NEUMANN_CLASS NEUMANN_WIND NEUMANN_PRES MLC_LAT MLC_LON MLC_CLASS MLC_WIND MLC_PRES USA_GUST BOM_GUST BOM_GUST_PER REUNION_GUST REUNION_GUST_PER USA_SEAHGT USA_SEARAD_NE USA_SEARAD_SE USA_SEARAD_SW USA_SEARAD_NW STORM_SPEED STORM_DIR
1862247N15326 1862 19 NA NA NOT_NAMED 1862-09-03 12:00:00 TS 15.0000 -34.5000 main 1827 1827 _____________O -1 15.0000 -34.5000 TD 30 12 289
1862247N15326 1862 19 NA NA NOT_NAMED 1862-09-03 15:00:00 TS 15.2004 -35.1098 main 1891 1891 _____________P -1 15.2004 -35.1098 TD 30 12 289
1862247N15326 1862 19 NA NA NOT_NAMED 1862-09-03 18:00:00 TS 15.4000 -35.7000 main 1956 1956 _____________O -1 15.4000 -35.7000 TD 30 12 290
1862247N15326 1862 19 NA NA NOT_NAMED 1862-09-03 21:00:00 TS 15.5998 -36.2576 main 2020 2020 _____________P -1 15.5998 -36.2576 TD 30 11 291
1862247N15326 1862 19 NA NA NOT_NAMED 1862-09-04 00:00:00 TS 15.8000 -36.8000 main 2042 2014 _____________O -1 15.8000 -36.8000 TD 30 11 291
1862247N15326 1862 19 NA NA NOT_NAMED 1862-09-04 03:00:00 TS 16.0074 -37.3500 main 2006 1980 _____________P -1 16.0074 -37.3500 TD 30 11 291
1862247N15326 1862 19 NA NA NOT_NAMED 1862-09-04 06:00:00 TS 16.2000 -37.9000 main 1980 1947 _____________O -1 16.2000 -37.9000 TD 30 11 286
1862247N15326 1862 19 NA NA NOT_NAMED 1862-09-04 09:00:00 TS 16.3199 -38.4579 main 1939 1916 _____________P -1 16.3199 -38.4579 TD 32 11 286
1862247N15326 1862 19 NA NA NOT_NAMED 1862-09-04 12:00:00 TS 16.5000 -39.0000 main 1916 1902 _____________O -1 16.5000 -39.0000 TS 35 12 298
1862247N15326 1862 19 NA NA NOT_NAMED 1862-09-04 15:00:00 TS 16.8699 -39.5148 main 1910 1903 _____________P -1 16.8699 -39.5148 TS 35 13 310
1862247N15326 1862 19 NA NA NOT_NAMED 1862-09-04 18:00:00 TS 17.3000 -40.0000 main 1907 1900 _____________O -1 17.3000 -40.0000 TS 35 12 311
1862247N15326 1862 19 NA NA NOT_NAMED 1862-09-04 21:00:00 TS 17.6498 -40.4578 main 1898 1898 _____________P -1 17.6498 -40.4578 TS 35 11 309
1862247N15326 1862 19 NA NA NOT_NAMED 1862-09-05 00:00:00 TS 18.0000 -40.9000 main 1906 1905 _____________O -1 18.0000 -40.9000 TS 35 11 312
1862247N15326 1862 19 NA NA NOT_NAMED 1862-09-05 03:00:00 TS 18.3998 -41.3426 main 1917 1911 _____________P -1 18.3998 -41.3426 TS 35 12 313
1862247N15326 1862 19 NA NA NOT_NAMED 1862-09-05 06:00:00 TS 18.8000 -41.8000 main 1921 1913 _____________O -1 18.8000 -41.8000 TS 35 12 308
1862247N15326 1862 19 NA NA NOT_NAMED 1862-09-05 09:00:00 TS 19.1277 -42.3450 main 1915 1909 _____________P -1 19.1277 -42.3450 TS 37 12 307
1862247N15326 1862 19 NA NA NOT_NAMED 1862-09-05 12:00:00 TS 19.5000 -42.8000 main 1921 1921 _____________O -1 19.5000 -42.8000 TS 40 11 325
1862247N15326 1862 19 NA NA NOT_NAMED 1862-09-05 15:00:00 TS 20.0198 -43.0029 main 1955 1955 _____________P -1 20.0198 -43.0029 TS 40 11 346
1862247N15326 1862 19 NA NA NOT_NAMED 1862-09-05 18:00:00 TS 20.6000 -43.1000 main 2006 2006 _____________O -1 20.6000 -43.1000 TS 40 12 348
1862247N15326 1862 19 NA NA NOT_NAMED 1862-09-05 21:00:00 TS 21.1500 -43.2501 main 2043 2043 _____________P -1 21.1500 -43.2501 TS 40 11 346
1862247N15326 1862 19 NA NA NOT_NAMED 1862-09-06 00:00:00 TS 21.7000 -43.4000 main 2096 2096 _____________O -1 21.7000 -43.4000 TS 40 11 346
1862247N15326 1862 19 NA NA NOT_NAMED 1862-09-06 03:00:00 TS 22.2575 -43.5501 main 2144 2144 _____________P -1 22.2575 -43.5501 TS 40 11 346
1862247N15326 1862 19 NA NA NOT_NAMED 1862-09-06 06:00:00 TS 22.8000 -43.7000 main 2189 2189 _____________O -1 22.8000 -43.7000 TS 40 11 343
1862247N15326 1862 19 NA NA NOT_NAMED 1862-09-06 09:00:00 TS 23.3000 -43.8946 main 2229 2229 _____________P -1 23.3000 -43.8946 TS 42 10 344
1862247N15326 1862 19 NA NA NOT_NAMED 1862-09-06 12:00:00 TS 23.8000 -44.0000 main 2275 2275 _____________O -1 23.8000 -44.0000 TS 45 11 0
1862247N15326 1862 19 NA NA NOT_NAMED 1862-09-06 15:00:00 TS 24.3500 -43.8880 main 2339 2339 _____________P -1 24.3500 -43.8880 TS 45 11 14
1862247N15326 1862 19 NA NA NOT_NAMED 1862-09-06 18:00:00 TS 24.9000 -43.7000 main 2373 2373 _____________O -1 24.9000 -43.7000 TS 45 11 13
1862247N15326 1862 19 NA NA NOT_NAMED 1862-09-06 21:00:00 TS 25.3999 -43.6145 main 2396 2396 _____________P -1 25.3999 -43.6145 TS 45 10 10
1862247N15326 1862 19 NA NA NOT_NAMED 1862-09-07 00:00:00 TS 25.9000 -43.5000 main 2420 2412 _____________O -1 25.9000 -43.5000 TS 45 11 16
1862247N15326 1862 19 NA NA NOT_NAMED 1862-09-07 03:00:00 TS 26.4500 -43.2727 main 2401 2358 _____________P -1 26.4500 -43.2727 TS 45 12 22
1862247N15326 1862 19 NA NA NOT_NAMED 1862-09-07 06:00:00 TS 27.0000 -43.0000 main 2358 2313 _____________O -1 27.0000 -43.0000 TS 45 12 24
1862247N15326 1862 19 NA NA NOT_NAMED 1862-09-07 09:00:00 TS 27.4999 -42.7571 main 2313 2271 _____________P -1 27.4999 -42.7571 TS 45 11 24
1862247N15326 1862 19 NA NA NOT_NAMED 1862-09-07 12:00:00 TS 28.0000 -42.5000 main 2271 2226 _____________O -1 28.0000 -42.5000 TS 45 12 25
1862247N15326 1862 19 NA NA NOT_NAMED 1862-09-07 15:00:00 TS 28.5425 -42.2074 main 2230 2180 _____________P -1 28.5425 -42.2074 TS 45 12 26
1862247N15326 1862 19 NA NA NOT_NAMED 1862-09-07 18:00:00 TS 29.1000 -41.9000 main 2180 2141 _____________O -1 29.1000 -41.9000 TS 45 12 26
1862247N15326 1862 19 NA NA NOT_NAMED 1862-09-07 21:00:00 TS 29.6500 -41.5923 main 2141 2093 _____________P -1 29.6500 -41.5923 TS 47 12 25
1862247N15326 1862 19 NA NA NOT_NAMED 1862-09-08 00:00:00 TS 30.2000 -41.3000 main 2093 2051 _____________O -1 30.2000 -41.3000 TS 50 12 23
1862247N15326 1862 19 NA NA NOT_NAMED 1862-09-08 03:00:00 TS 30.7574 -41.0495 main 2046 2005 _____________P -1 30.7574 -41.0495 TS 50 12 21
1862247N15326 1862 19 NA NA NOT_NAMED 1862-09-08 06:00:00 TS 31.3000 -40.8000 main 2005 1970 _____________O -1 31.3000 -40.8000 TS 50 11 24
1862247N15326 1862 19 NA NA NOT_NAMED 1862-09-08 09:00:00 TS 31.7925 -40.5071 main 1970 1936 _____________P -1 31.7925 -40.5071 TS 52 11 27
1862247N15326 1862 19 NA NA NOT_NAMED 1862-09-08 12:00:00 TS 32.3000 -40.2000 main 1936 1894 _____________O -1 32.3000 -40.2000 TS 55 12 25
1862247N15326 1862 19 NA NA NOT_NAMED 1862-09-08 15:00:00 TS 32.8849 -39.8997 main 1894 1853 _____________P -1 32.8849 -39.8997 TS 57 13 23
1862247N15326 1862 19 NA NA NOT_NAMED 1862-09-08 18:00:00 TS 33.5000 -39.6000 main 1853 1814 _____________O -1 33.5000 -39.6000 TS 60 13 23
1862247N15326 1862 19 NA NA NOT_NAMED 1862-09-08 21:00:00 TS 34.1001 -39.2702 main 1814 1777 _____________P -1 34.1001 -39.2702 TS 60 13 23
1862247N15326 1862 19 NA NA NOT_NAMED 1862-09-09 00:00:00 TS 34.7000 -39.0000 main 1777 1730 _____________O -1 34.7000 -39.0000 TS 60 13 16
1862247N15326 1862 19 NA NA NOT_NAMED 1862-09-09 03:00:00 TS 35.3074 -38.8619 main 1730 1685 _____________P -1 35.3074 -38.8619 TS 62 12 8
1862247N15326 1862 19 NA NA NOT_NAMED 1862-09-09 06:00:00 TS 35.9000 -38.8000 main 1685 1640 _____________O -1 35.9000 -38.8000 HU 65 12 5
1862247N15326 1862 19 NA NA NOT_NAMED 1862-09-09 09:00:00 TS 36.4875 -38.7349 main 1640 1600 _____________P -1 36.4875 -38.7349 HU 65 11 4
1862247N15326 1862 19 NA NA NOT_NAMED 1862-09-09 12:00:00 TS 37.0000 -38.7000 main 1600 1568 _____________O -1 37.0000 -38.7000 HU 65 9 4
1862247N15326 1862 19 NA NA NOT_NAMED 1862-09-09 15:00:00 TS 37.3800 -38.6702 main 1568 1544 _____________P -1 37.3800 -38.6702 HU 65 7 0
1862247N15326 1862 19 NA NA NOT_NAMED 1862-09-09 18:00:00 TS 37.7000 -38.7000 main 1544 1514 _____________O -1 37.7000 -38.7000 HU 65 7 354
1862247N15326 1862 19 NA NA NOT_NAMED 1862-09-09 21:00:00 TS 38.0496 -38.7682 main 1514 1471 _____________P -1 38.0496 -38.7682 HU 65 7 341
1862247N15326 1862 19 NA NA NOT_NAMED 1862-09-10 00:00:00 TS 38.4000 -39.0000 main 1471 1417 _____________O -1 38.4000 -39.0000 HU 65 9 321
1862247N15326 1862 19 NA NA NOT_NAMED 1862-09-10 03:00:00 TS 38.7504 -39.4897 main 1409 1348 _____________P -1 38.7504 -39.4897 HU 65 11 309
1862247N15326 1862 19 NA NA NOT_NAMED 1862-09-10 06:00:00 TS 39.1000 -40.1000 main 1348 1288 _____________O -1 39.1000 -40.1000 HU 65 12 304
1862247N15326 1862 19 NA NA NOT_NAMED 1862-09-10 09:00:00 TS 39.4355 -40.7761 main 1282 1226 _____________P -1 39.4355 -40.7761 HU 65 11 309
1862247N15326 1862 19 NA NA NOT_NAMED 1862-09-10 12:00:00 TS 39.8000 -41.2000 main 1226 1203 _____________O -1 39.8000 -41.2000 HU 65 8 346
1862247N15326 1862 19 NA NA NOT_NAMED 1862-09-10 15:00:00 TS 40.2274 -41.0293 main 1209 1199 _____________P -1 40.2274 -41.0293 HU 65 10 27
1862247N15326 1862 19 NA NA NOT_NAMED 1862-09-10 18:00:00 TS 40.7000 -40.6000 main 1199 1185 _____________O -1 40.7000 -40.6000 HU 65 11 29
1862247N15326 1862 19 NA NA NOT_NAMED 1862-09-10 21:00:00 TS 41.1998 -40.3144 main 1185 1173 _____________P -1 41.1998 -40.3144 HU 62 11 24
1862247N15326 1862 19 NA NA NOT_NAMED 1862-09-11 00:00:00 TS 41.7000 -40.0000 main 1174 1165 _____________O -1 41.7000 -40.0000 TS 60 11 26
1862247N15326 1862 19 NA NA NOT_NAMED 1862-09-11 03:00:00 TS 42.1562 -39.6953 main 1166 1166 _____________P -1 42.1562 -39.6953 TS 57 11 33
1862247N15326 1862 19 NA NA NOT_NAMED 1862-09-11 06:00:00 TS 42.6000 -39.2000 main 1179 1179 _____________O -1 42.6000 -39.2000 TS 55 13 49
1862247N15326 1862 19 NA NA NOT_NAMED 1862-09-11 09:00:00 TS 42.9895 -38.3804 main 1212 1212 _____________P -1 42.9895 -38.3804 TS 52 17 57
1862247N15326 1862 19 NA NA NOT_NAMED 1862-09-11 12:00:00 TS 43.5000 -37.3000 main 1265 1265 _____________O -1 43.5000 -37.3000 TS 50 21 52
1862247N15326 1862 19 NA NA NOT_NAMED 1862-09-11 15:00:00 TS 44.2978 -36.0545 main 1317 1317 _____________P -1 44.2978 -36.0545 TS 47 25 48
1862247N15326 1862 19 NA NA NOT_NAMED 1862-09-11 18:00:00 TS 45.2000 -34.7000 main 1388 1388 _____________O -1 45.2000 -34.7000 TS 45 25 48
1862247N15326 1862 19 NA NA NOT_NAMED 1862-09-11 21:00:00 TS 46.0060 -33.3958 main 1462 1462 _____________P -1 46.0060 -33.3958 TS 45 24 48
1862247N15326 1862 19 NA NA NOT_NAMED 1862-09-12 00:00:00 ET 46.8000 -32.1000 main 1541 1532 _____________O -1 46.8000 -32.1000 EX 45 24 48
1862247N15326 1862 19 NA NA NOT_NAMED 1862-09-12 03:00:00 ET 47.5970 -30.8388 main 1526 1407 _____________P -1 47.5970 -30.8388 EX 42 24 48
1862247N15326 1862 19 NA NA NOT_NAMED 1862-09-12 06:00:00 ET 48.4000 -29.5000 main 1400 1272 _____________O -1 48.4000 -29.5000 EX 40 25 50
1862247N15326 1862 19 NA NA NOT_NAMED 1862-09-12 09:00:00 ET 49.2059 -27.9725 main 1265 1127 _____________P -1 49.2059 -27.9725 EX 37 26 53
1862247N15326 1862 19 NA NA NOT_NAMED 1862-09-12 12:00:00 ET 50.0000 -26.3000 main 1120 _____________O -1 50.0000 -26.3000 EX 35 27 54

About IBTrACS Database

This database is a web-friendly format of International Best Track Archive for Climate Stewardship (IBTrACS), a global best track data archive curated by NOAA dating back to 1842.

Updated: 2021-10-25